Time;durP1;ratioP1;P1;durP2;ratioP2;P2;SDS_P1;SDS_P2;PMS_P1;PMS_P2;Temp;Humidity;BMP_temperature;BMP_pressure;BME280_temperature;BME280_humidity;BME280_pressure;Samples;Min_cycle;Max_cycle;Signal;HPM_P1;HPM_P2
2021/06/01 00:01:24;;;;;;;22.40;5.07;;;4.20;1.00;;;;;;4796576;28;20188;-83
2021/06/01 00:03:46;;;;;;;11.43;3.40;;;5.10;1.00;;;;;;4798146;28;20188;-83
2021/06/01 00:06:09;;;;;;;13.63;3.60;;;;;;;;;;4781941;28;20212;-81
2021/06/01 00:08:33;;;;;;;9.47;3.13;;;;;;;;;;4795490;28;20223;-82
2021/06/01 00:10:55;;;;;;;8.17;3.27;;;;;;;;;;4780818;28;20197;-82
2021/06/01 00:13:18;;;;;;;13.37;3.77;;;;;;;;;;4797472;28;20276;-84
2021/06/01 00:15:40;;;;;;;9.40;3.20;;;;;;;;;;4782152;28;20204;-85
2021/06/01 00:18:04;;;;;;;20.13;4.77;;;4.10;1.00;;;;;;4780319;28;20669;-83
2021/06/01 00:20:26;;;;;;;11.23;3.20;;;;;;;;;;4781056;28;20749;-84
2021/06/01 00:22:50;;;;;;;14.97;3.83;;;;;;;;;;4798432;28;20267;-85
2021/06/01 00:25:12;;;;;;;14.23;3.87;;;4.00;1.00;;;;;;4798121;28;20665;-83
2021/06/01 00:27:34;;;;;;;9.63;3.53;;;4.20;6.10;;;;;;4798980;28;20204;-84
2021/06/01 00:29:57;;;;;;;5.50;2.73;;;;;;;;;;4765636;28;20252;-86
2021/06/01 00:32:19;;;;;;;12.27;3.73;;;;;;;;;;4780572;28;20655;-84
2021/06/01 00:34:44;;;;;;;11.20;3.37;;;3.90;1.00;;;;;;4798203;28;20195;-86
2021/06/01 00:37:07;;;;;;;15.23;4.20;;;;;;;;;;4798387;28;20537;-85
2021/06/01 00:39:29;;;;;;;17.10;4.43;;;;;;;;;;4797563;28;20294;-85
2021/06/01 00:41:51;;;;;;;14.27;4.10;;;;;;;;;;4799854;28;20752;-86
2021/06/01 00:44:14;;;;;;;17.50;4.77;;;3.80;1.00;;;;;;4781389;28;20224;-86
2021/06/01 00:46:36;;;;;;;6.33;2.97;;;;;;;;;;4792888;28;20598;-85
2021/06/01 00:48:58;;;;;;;12.37;3.83;;;;;;;;;;4803624;28;20207;-85
2021/06/01 00:51:22;;;;;;;9.30;3.40;;;3.90;1.00;;;;;;4802505;28;20592;-86
2021/06/01 00:53:45;;;;;;;8.13;3.43;;;;;;;;;;4802958;28;20642;-85
2021/06/01 00:56:09;;;;;;;26.00;5.97;;;3.80;1.00;;;;;;4801814;28;20234;-84
2021/06/01 00:58:31;;;;;;;7.67;3.10;;;;;;;;;;4786082;28;20208;-86
2021/06/01 01:01:15;;;;;;;11.23;3.70;;;;;;;;;;4784256;28;20227;-86
2021/06/01 01:03:39;;;;;;;8.43;3.47;;;3.70;1.00;;;;;;4762180;28;20698;-83
2021/06/01 01:06:07;;;;;;;11.73;3.83;;;3.60;4.70;;;;;;4802687;28;20208;-87
2021/06/01 01:08:46;;;;;;;8.73;3.30;;;3.60;11.30;;;;;;4803246;28;20278;-87
2021/06/01 01:11:12;;;;;;;11.57;4.33;;;3.60;1.00;;;;;;4802147;28;20188;-85
2021/06/01 01:13:42;;;;;;;7.50;3.03;;;3.50;1.00;;;;;;4793810;28;20196;-84
2021/06/01 01:16:06;;;;;;;11.77;4.20;;;3.80;19.60;;;;;;4785511;28;20243;-86
2021/06/01 01:18:31;;;;;;;7.57;3.43;;;3.50;1.00;;;;;;4784821;28;20192;-85
2021/06/01 01:20:59;;;;;;;8.10;3.33;;;3.50;1.00;;;;;;4768372;28;20198;-85
2021/06/01 01:23:23;;;;;;;11.63;4.10;;;3.50;1.00;;;;;;4800172;28;20227;-85
2021/06/01 01:26:02;;;;;;;7.07;3.27;;;3.40;16.60;;;;;;4784504;28;20808;-85
2021/06/01 01:28:32;;;;;;;10.67;4.30;;;3.60;1.00;;;;;;4801262;28;20239;-85
2021/06/01 01:31:01;;;;;;;7.23;3.33;;;3.40;1.00;;;;;;4801212;28;20254;-82
2021/06/01 01:33:28;;;;;;;12.63;4.50;;;3.50;27.20;;;;;;4781622;28;20878;-84
2021/06/01 01:35:53;;;;;;;9.13;4.03;;;3.40;1.00;;;;;;4807129;28;20184;-84
2021/06/01 01:38:16;;;;;;;13.03;4.50;;;4.20;1.00;;;;;;4785877;28;20196;-85
2021/06/01 01:40:41;;;;;;;6.17;3.27;;;3.40;1.00;;;;;;4801349;28;20188;-85
2021/06/01 01:43:07;;;;;;;12.80;4.70;;;3.30;1.00;;;;;;4783120;28;20279;-86
2021/06/01 01:45:30;;;;;;;9.13;4.10;;;3.20;27.00;;;;;;4767209;28;20210;-85
2021/06/01 01:50:38;;;;;;;10.00;4.20;;;3.20;1.00;;;;;;4793637;28;20213;-86
2021/06/01 01:53:00;;;;;;;11.83;4.33;;;3.20;10.00;;;;;;4800426;28;20278;-85
2021/06/01 01:55:23;;;;;;;13.60;4.70;;;3.10;28.20;;;;;;4800156;28;20188;-86
2021/06/01 01:57:47;;;;;;;6.30;3.40;;;3.30;31.30;;;;;;4783736;28;20582;-84
2021/06/01 02:00:12;;;;;;;12.77;4.70;;;3.20;1.00;;;;;;4800136;28;20716;-86
2021/06/01 02:02:34;;;;;;;10.17;4.40;;;3.20;1.00;;;;;;4798397;28;20274;-85
2021/06/01 02:04:56;;;;;;;7.97;3.83;;;3.30;1.70;;;;;;4801018;28;20324;-83
2021/06/01 02:07:20;;;;;;;8.33;3.87;;;3.00;32.60;;;;;;4799696;28;20191;-85
2021/06/01 02:09:42;;;;;;;10.23;4.23;;;;;;;;;;4762467;28;1148175;-84
2021/06/01 02:12:05;;;;;;;21.30;6.53;;;3.00;28.50;;;;;;4801075;28;20200;-85
2021/06/01 02:14:28;;;;;;;8.50;3.83;;;;;;;;;;4801732;28;20188;-84
2021/06/01 02:16:51;;;;;;;23.30;4.63;;;2.90;1.00;;;;;;4783599;28;20201;-85
2021/06/01 02:19:16;;;;;;;11.83;4.23;;;2.90;30.30;;;;;;4783938;28;20200;-85
2021/06/01 02:22:15;;;;;;;8.97;3.87;;;2.90;1.00;;;;;;4794478;28;20646;-85
2021/06/01 02:24:46;;;;;;;5.40;3.20;;;2.80;5.10;;;;;;4794695;28;20630;-83
2021/06/01 02:27:14;;;;;;;13.10;4.73;;;2.90;8.40;;;;;;4801584;28;20180;-86
2021/06/01 02:29:42;;;;;;;6.57;3.53;;;2.80;10.30;;;;;;4777071;28;20666;-86
2021/06/01 02:32:06;;;;;;;24.00;7.47;;;1.70;17.70;;;;;;4800591;28;20246;-85
2021/06/01 02:34:29;;;;;;;7.23;4.27;;;2.70;44.70;;;;;;4784456;28;20688;-86
2021/06/01 02:36:52;;;;;;;7.20;4.40;;;2.80;32.00;;;;;;4802653;28;20188;-86
2021/06/01 02:39:17;;;;;;;13.47;6.13;;;2.70;52.50;;;;;;4801146;28;20250;-87
2021/06/01 02:41:41;;;;;;;7.27;4.20;;;2.90;53.80;;;;;;4801158;28;20192;-86
2021/06/01 02:44:05;;;;;;;10.93;4.67;;;1.80;15.60;;;;;;4783089;28;20257;-84
2021/06/01 02:46:27;;;;;;;8.73;4.47;;;;;;;;;;4789525;28;20193;-82
2021/06/01 02:48:50;;;;;;;10.03;4.60;;;2.60;20.00;;;;;;4800838;28;20192;-85
2021/06/01 02:51:16;;;;;;;9.83;4.87;;;2.70;31.30;;;;;;4800072;28;20239;-82
2021/06/01 02:53:38;;;;;;;6.23;4.03;;;2.80;59.30;;;;;;4799799;28;20717;-86
2021/06/01 02:56:01;;;;;;;8.63;4.50;;;2.50;32.70;;;;;;4784672;28;20185;-87
2021/06/01 02:58:24;;;;;;;8.53;5.73;;;2.70;34.40;;;;;;4802027;28;20650;-82
2021/06/01 03:00:47;;;;;;;12.70;6.23;;;;;;;;;;4782672;28;20176;-86
2021/06/01 03:03:12;;;;;;;15.63;7.13;;;2.70;70.80;;;;;;4800625;28;20243;-86
2021/06/01 03:05:34;;;;;;;8.40;5.67;;;2.90;80.00;;;;;;4777245;28;20765;-84
2021/06/01 03:08:12;;;;;;;7.87;5.43;;;3.00;99.90;;;;;;4784819;28;20266;-86
2021/06/01 03:10:34;;;;;;;10.67;6.47;;;3.00;99.90;;;;;;4799824;28;20255;-85
2021/06/01 03:12:58;;;;;;;10.53;6.57;;;3.10;99.90;;;;;;4798681;28;20185;-86
2021/06/01 03:15:22;;;;;;;9.37;5.77;;;3.10;95.80;;;;;;4799886;28;20635;-81
2021/06/01 03:17:44;;;;;;;7.63;5.57;;;3.30;99.90;;;;;;4801145;28;20184;-86
2021/06/01 03:20:07;;;;;;;10.33;6.07;;;3.30;99.90;;;;;;4801279;28;20196;-87
2021/06/01 03:22:30;;;;;;;9.97;6.47;;;;;;;;;;4797598;28;20219;-86
2021/06/01 03:24:53;;;;;;;9.80;6.70;;;;;;;;;;4800363;28;20259;-86
2021/06/01 03:27:15;;;;;;;12.73;7.47;;;3.30;99.90;;;;;;4800269;28;20208;-86
2021/06/01 03:29:38;;;;;;;9.17;6.70;;;;;;;;;;4801288;28;20650;-82
2021/06/01 03:32:02;;;;;;;13.07;7.07;;;3.50;99.90;;;;;;4799047;28;20235;-85
2021/06/01 03:34:24;;;;;;;13.03;7.07;;;;;;;;;;4799946;28;20192;-84
2021/06/01 03:36:46;;;;;;;8.40;6.53;;;3.70;99.90;;;;;;4801181;28;20184;-87
2021/06/01 03:39:09;;;;;;;12.07;7.47;;;3.70;99.90;;;;;;4800947;28;20192;-86
2021/06/01 03:41:31;;;;;;;8.50;6.20;;;3.60;99.90;;;;;;4799519;28;20192;-87
2021/06/01 03:43:53;;;;;;;10.07;6.70;;;;;;;;;;4798120;28;20231;-86
2021/06/01 03:46:15;;;;;;;11.93;6.53;;;3.40;99.90;;;;;;4799998;28;20239;-86
2021/06/01 03:48:40;;;;;;;7.63;6.33;;;3.90;99.90;;;;;;4799565;28;20242;-84
2021/06/01 03:51:02;;;;;;;11.77;7.73;;;3.80;99.90;;;;;;4783114;28;20189;-86
2021/06/01 03:53:27;;;;;;;10.13;6.80;;;4.20;99.90;;;;;;4799884;28;20188;-87
2021/06/01 03:55:49;;;;;;;12.73;7.20;;;4.00;99.90;;;;;;4799188;28;20255;-86
2021/06/01 03:58:11;;;;;;;10.17;6.73;;;4.30;99.90;;;;;;4799486;28;20239;-87
2021/06/01 04:00:33;;;;;;;34.50;13.07;;;4.70;99.90;;;;;;4781033;28;20244;-88
2021/06/01 04:02:56;;;;;;;9.23;6.50;;;;;;;;;;4799765;28;20555;-87
2021/06/01 04:05:20;;;;;;;10.30;7.33;;;4.60;99.90;;;;;;4798747;28;20220;-86
2021/06/01 04:07:44;;;;;;;8.03;5.77;;;4.70;99.90;;;;;;4800124;28;20239;-88
2021/06/01 04:10:07;;;;;;;9.07;6.70;;;4.90;99.90;;;;;;4764302;29;20205;-83
2021/06/01 04:12:29;;;;;;;12.13;6.53;;;5.10;99.90;;;;;;4765963;28;20213;-84
2021/06/01 04:14:51;;;;;;;8.43;5.90;;;5.40;99.90;;;;;;4783174;28;20192;-84
2021/06/01 04:17:14;;;;;;;13.27;7.10;;;;;;;;;;4799180;28;20192;-86
2021/06/01 04:19:36;;;;;;;8.47;5.97;;;5.50;99.90;;;;;;4793099;28;20568;-84
2021/06/01 04:22:00;;;;;;;11.77;6.37;;;5.70;99.90;;;;;;4781736;28;20828;-85
2021/06/01 04:24:26;;;;;;;10.67;6.10;;;5.90;99.90;;;;;;4782628;28;20682;-86
2021/06/01 04:26:49;;;;;;;10.13;6.13;;;;;;;;;;4799809;28;20192;-84
2021/06/01 04:29:11;;;;;;;10.27;5.80;;;;;;;;;;4799175;28;20196;-76
2021/06/01 04:31:33;;;;;;;7.67;4.50;;;;;;;;;;4800252;28;20601;-85
2021/06/01 04:33:56;;;;;;;7.90;4.50;;;;;;;;;;4782478;28;20199;-86
2021/06/01 04:36:18;;;;;;;5.73;4.13;;;;;;;;;;4800314;28;20226;-81
2021/06/01 04:38:41;;;;;;;6.87;4.30;;;6.70;99.90;;;;;;4799496;28;20247;-84
2021/06/01 04:41:03;;;;;;;8.43;4.03;;;7.00;99.90;;;;;;4800582;28;20195;-86
2021/06/01 04:43:26;;;;;;;8.63;4.17;;;;;;;;;;4799241;28;20693;-86
2021/06/01 04:45:48;;;;;;;6.23;3.57;;;;;;;;;;4800462;28;20192;-84
2021/06/01 04:48:11;;;;;;;10.00;4.33;;;7.60;99.90;;;;;;4803178;28;20254;-86
2021/06/01 04:50:33;;;;;;;5.73;3.03;;;7.40;99.90;;;;;;4783180;28;20183;-86
2021/06/01 04:52:56;;;;;;;4.93;2.57;;;7.90;99.90;;;;;;4813306;28;20195;-85
2021/06/01 04:55:20;;;;;;;5.30;2.37;;;8.00;95.20;;;;;;4809873;28;20191;-86
2021/06/01 04:57:42;;;;;;;4.07;2.30;;;7.70;99.90;;;;;;4789800;28;20241;-86
2021/06/01 05:00:06;;;;;;;9.50;3.33;;;8.40;66.70;;;;;;4798428;28;20239;-85
2021/06/01 05:02:28;;;;;;;7.27;2.73;;;8.30;10.80;;;;;;4797641;28;20648;-85
2021/06/01 05:04:50;;;;;;;4.03;1.93;;;;;;;;;;4783355;28;20212;-86
2021/06/01 05:07:13;;;;;;;9.23;3.40;;;;;;;;;;4799409;28;20259;-86
2021/06/01 05:09:35;;;;;;;4.40;2.00;;;;;;;;;;4792587;28;20223;-87
2021/06/01 05:11:58;;;;;;;7.10;2.60;;;8.90;1.00;;;;;;4798904;28;20247;-87
2021/06/01 05:14:21;;;;;;;6.93;2.33;;;;;;;;;;4784801;28;20562;-87
2021/06/01 05:16:43;;;;;;;4.83;1.90;;;9.30;1.00;;;;;;4799480;28;20562;-85
2021/06/01 05:19:05;;;;;;;7.63;2.60;;;9.40;1.00;;;;;;4799356;28;20304;-84
2021/06/01 05:21:27;;;;;;;7.00;2.43;;;;;;;;;;4798978;28;20188;-85
2021/06/01 05:23:50;;;;;;;8.13;2.30;;;9.60;99.90;;;;;;4780675;28;20224;-83
2021/06/01 05:26:12;;;;;;;5.90;2.10;;;;;;;;;;4781570;28;20209;-84
2021/06/01 05:28:37;;;;;;;4.13;1.57;;;10.10;99.90;;;;;;4799328;28;20207;-83
2021/06/01 05:31:07;;;;;;;5.50;1.87;;;;;;;;;;4798322;28;20662;-82
2021/06/01 05:33:31;;;;;;;7.60;2.27;;;;;;;;;;4795679;28;20192;-82
2021/06/01 05:35:53;;;;;;;5.20;1.87;;;;;;;;;;4782406;28;20679;-85
2021/06/01 05:38:16;;;;;;;9.10;2.37;;;;;;;;;;4785229;28;20258;-80
2021/06/01 05:40:38;;;;;;;4.37;1.63;;;;;;;;;;4802476;28;20702;-83
2021/06/01 05:43:01;;;;;;;6.30;1.87;;;;;;;;;;4766885;29;20237;-85
2021/06/01 05:45:24;;;;;;;5.07;1.50;;;11.00;1.00;;;;;;4801927;28;20246;-82
2021/06/01 05:47:47;;;;;;;5.40;1.63;;;;;;;;;;4802417;28;20254;-85
2021/06/01 05:50:11;;;;;;;6.50;1.63;;;11.30;99.90;;;;;;4802017;28;20192;-82
2021/06/01 05:52:34;;;;;;;3.93;1.27;;;11.40;1.00;;;;;;4768759;28;20232;-85
2021/06/01 05:54:57;;;;;;;2.63;0.90;;;;;;;;;;4766764;28;20210;-87
2021/06/01 05:57:19;;;;;;;5.07;1.43;;;11.80;1.00;;;;;;4784257;28;20705;-81
2021/06/01 05:59:41;;;;;;;4.07;1.33;;;11.20;1.00;;;;;;4801727;28;20900;-83
2021/06/01 06:02:06;;;;;;;17.40;4.17;;;11.70;1.00;;;;;;4781263;28;20192;-81
2021/06/01 06:04:38;;;;;;;9.27;2.37;;;11.70;1.00;;;;;;4799182;28;20266;-83
2021/06/01 06:07:00;;;;;;;4.83;1.23;;;;;;;;;;4784093;28;20533;-83
2021/06/01 06:09:22;;;;;;;6.57;1.83;;;;;;;;;;4802309;28;20278;-84
2021/06/01 06:11:44;;;;;;;5.67;1.57;;;;;;;;;;4802052;28;20188;-83
2021/06/01 06:14:06;;;;;;;7.70;2.03;;;12.30;99.90;;;;;;4801322;28;20196;-82
2021/06/01 06:16:30;;;;;;;8.20;2.17;;;11.90;1.00;;;;;;4783744;28;20260;-83
2021/06/01 06:18:58;;;;;;;4.27;1.23;;;12.50;99.90;;;;;;4801903;28;20180;-83
2021/06/01 06:21:20;;;;;;;3.10;0.93;;;;;;;;;;4768995;28;20276;-86
2021/06/01 06:23:42;;;;;;;4.13;1.17;;;;;;;;;;4801877;28;20643;-83
2021/06/01 06:26:05;;;;;;;10.93;2.63;;;;;;;;;;4783840;28;20232;-85
2021/06/01 06:28:31;;;;;;;4.67;1.40;;;12.10;1.00;;;;;;4802237;28;20701;-84
2021/06/01 06:30:54;;;;;;;4.77;1.50;;;;;;;;;;4800458;28;20578;-83
2021/06/01 06:33:16;;;;;;;9.50;2.33;;;;;;;;;;4800170;28;20200;-77
2021/06/01 06:35:40;;;;;;;3.13;0.97;;;12.40;1.00;;;;;;4801667;28;20196;-82
2021/06/01 06:38:02;;;;;;;5.67;1.50;;;;;;;;;;4782228;28;20260;-85
2021/06/01 06:40:25;;;;;;;6.33;1.57;;;12.10;1.00;;;;;;4801346;28;20227;-81
2021/06/01 06:42:48;;;;;;;4.00;1.10;;;;;;;;;;4783273;28;20188;-82
2021/06/01 06:45:13;;;;;;;6.87;1.73;;;13.00;1.00;;;;;;4801347;28;20216;-83
2021/06/01 06:47:56;;;;;;;6.87;1.67;;;;;;;;;;4779819;28;20557;-81
2021/06/01 06:50:22;;;;;;;5.13;1.40;;;13.10;99.90;;;;;;4797636;28;20915;-83
2021/06/01 06:52:46;;;;;;;6.40;1.57;;;13.30;1.00;;;;;;4780015;29;20560;-83
2021/06/01 06:55:10;;;;;;;8.33;2.00;;;13.00;1.00;;;;;;4793923;28;20258;-82
2021/06/01 06:57:32;;;;;;;3.47;1.00;;;;;;;;;;4801680;28;20256;-82
2021/06/01 06:59:55;;;;;;;7.00;1.73;;;;;;;;;;4799598;28;20188;-81
2021/06/01 07:02:17;;;;;;;10.27;2.30;;;;;;;;;;4797722;28;20262;-83
2021/06/01 07:04:39;;;;;;;6.90;1.60;;;;;;;;;;4782105;28;20240;-82
2021/06/01 07:07:02;;;;;;;8.50;1.80;;;;;;;;;;4800729;28;20189;-85
2021/06/01 07:09:26;;;;;;;6.97;1.47;;;14.30;1.00;;;;;;4793388;28;20220;-77
2021/06/01 07:11:48;;;;;;;13.53;2.20;;;;;;;;;;4816016;28;20203;-79
2021/06/01 07:14:32;;;;;;;14.63;2.20;;;15.00;1.00;;;;;;4782525;28;20617;-84
2021/06/01 07:16:54;;;;;;;6.67;1.13;;;;;;;;;;4800370;28;20204;-88
2021/06/01 07:19:17;;;;;;;14.47;2.13;;;;;;;;;;4800700;28;20725;-83
2021/06/01 07:21:39;;;;;;;11.53;1.70;;;;;;;;;;4798977;28;20204;-84
2021/06/01 07:24:01;;;;;;;6.80;1.07;;;;;;;;;;4800837;28;20697;-76
2021/06/01 07:26:26;;;;;;;6.87;1.13;;;16.10;99.90;;;;;;4800782;28;20192;-75
2021/06/01 07:28:48;;;;;;;9.07;1.47;;;;;;;;;;4799673;28;20197;-81
2021/06/01 07:31:14;;;;;;;21.67;3.10;;;;;;;;;;4800148;28;20202;-79
2021/06/01 07:33:37;;;;;;;5.30;0.93;;;16.60;99.90;;;;;;4800272;28;20192;-78
2021/06/01 07:35:59;;;;;;;10.00;1.57;;;;;;;;;;4800870;28;20188;-77
2021/06/01 07:38:24;;;;;;;8.40;1.37;;;;;;;;;;4800648;28;20590;-77
2021/06/01 07:40:47;;;;;;;8.43;1.37;;;16.90;99.90;;;;;;4800383;28;20196;-77
2021/06/01 07:43:11;;;;;;;15.95;2.30;;;17.10;99.90;;;;;;4798653;28;20588;-78
2021/06/01 07:45:33;;;;;;;9.30;1.37;;;;;;;;;;4800388;28;20191;-81
2021/06/01 07:47:56;;;;;;;3.83;0.57;;;;;;;;;;4801793;28;20181;-87
2021/06/01 07:50:18;;;;;;;12.43;1.83;;;;;;;;;;4800947;28;20188;-84
2021/06/01 07:52:40;;;;;;;15.53;2.33;;;;;;;;;;4799132;28;20195;-81
2021/06/01 07:55:05;;;;;;;12.13;1.90;;;17.80;1.00;;;;;;4799655;28;20311;-84
2021/06/01 07:57:28;;;;;;;6.33;1.00;;;;;;;;;;4801139;28;20239;-84
2021/06/01 07:59:51;;;;;;;6.27;1.10;;;17.90;99.90;;;;;;4799377;28;20254;-83
2021/06/01 08:02:13;;;;;;;17.97;2.70;;;;;;;;;;4798625;28;20263;-82
2021/06/01 08:04:36;;;;;;;6.50;1.07;;;;;;;;;;4799902;28;20911;-84
2021/06/01 08:07:03;;;;;;;11.17;1.73;;;;;;;;;;4798842;28;20631;-84
2021/06/01 08:09:27;;;;;;;7.00;1.10;;;;;;;;;;4798564;28;20255;-83
2021/06/01 08:11:49;;;;;;;5.17;0.83;;;;;;;;;;4782490;28;20197;-83
2021/06/01 08:14:11;;;;;;;19.80;2.93;;;;;;;;;;4798469;28;20250;-86
2021/06/01 08:16:39;;;;;;;6.20;1.07;;;18.10;99.90;;;;;;4800340;28;20191;-83
2021/06/01 08:19:07;;;;;;;5.63;0.90;;;;;;;;;;4800178;28;20211;-83
2021/06/01 08:21:41;;;;;;;4.80;0.77;;;;;;;;;;4798782;28;20325;-83
2021/06/01 08:24:04;;;;;;;8.97;1.37;;;18.60;99.90;;;;;;4798058;28;20824;-82
2021/06/01 08:26:26;;;;;;;7.93;1.30;;;;;;;;;;4800062;28;20243;-83
2021/06/01 08:28:48;;;;;;;7.33;1.13;;;;;;;;;;4800568;28;20316;-81
2021/06/01 08:31:11;;;;;;;12.23;1.93;;;;;;;;;;4800137;28;20242;-84
2021/06/01 08:33:34;;;;;;;10.87;1.70;;;19.20;99.90;;;;;;4798983;28;20654;-81
2021/06/01 08:35:57;;;;;;;10.97;1.80;;;;;;;;;;4799356;28;20262;-81
2021/06/01 08:38:21;;;;;;;15.70;2.40;;;19.70;99.90;;;;;;4804418;28;20191;-82
2021/06/01 08:40:48;;;;;;;6.47;1.03;;;;;;;;;;4817076;28;20258;-81
2021/06/01 08:43:18;;;;;;;11.73;1.80;;;20.00;4.50;;;;;;4816615;28;20183;-82
2021/06/01 08:45:41;;;;;;;3.23;0.60;;;20.70;99.90;;;;;;4818669;28;20223;-75
2021/06/01 08:48:03;;;;;;;10.17;1.60;;;;;;;;;;4817217;28;20239;-78
2021/06/01 08:50:28;;;;;;;10.00;1.53;;;20.90;99.90;;;;;;4801055;28;20217;-76
2021/06/01 08:52:50;;;;;;;11.87;1.70;;;21.50;1.00;;;;;;4796996;28;20205;-78
2021/06/01 08:55:13;;;;;;;17.23;2.57;;;21.30;99.90;;;;;;4797847;28;20249;-75
2021/06/01 08:57:36;;;;;;;14.33;2.17;;;21.00;99.90;;;;;;4799004;28;20190;-82
2021/06/01 08:59:58;;;;;;;9.47;1.43;;;;;;;;;;4799107;28;20197;-76
2021/06/01 09:02:21;;;;;;;7.97;1.23;;;21.70;99.90;;;;;;4795368;28;20315;-77
2021/06/01 09:04:49;;;;;;;9.03;1.40;;;21.50;1.00;;;;;;4799212;28;20219;-76
2021/06/01 09:07:21;;;;;;;13.97;2.00;;;22.70;99.90;;;;;;4798971;28;20566;-77
2021/06/01 09:10:04;;;;;;;13.60;1.90;;;23.30;99.90;;;;;;4798169;28;20643;-77
2021/06/01 09:12:32;;;;;;;13.67;1.77;;;;;;;;;;4802387;28;20583;-76
2021/06/01 09:15:16;;;;;;;12.97;1.80;;;;;;;;;;4786522;28;20187;-76
2021/06/01 09:23:13;;;;;;;22.17;2.87;;;26.00;99.90;;;;;;4801495;28;20232;-78
2021/06/01 09:25:40;;;;;;;15.73;2.17;;;27.50;99.90;;;;;;4784798;28;20232;-77
2021/06/01 09:28:03;;;;;;;16.47;2.20;;;28.90;99.90;;;;;;4802442;28;20202;-80
2021/06/01 09:30:37;;;;;;;22.23;3.00;;;30.00;1.00;;;;;;4801597;28;20191;-78
2021/06/01 09:32:59;;;;;;;11.57;1.53;;;;;;;;;;4784055;28;20263;-78
2021/06/01 09:35:22;;;;;;;9.00;1.20;;;;;;;;;;4802308;28;20218;-76
2021/06/01 09:37:44;;;;;;;15.70;2.10;;;;;;;;;;4802479;28;20846;-77
2021/06/01 09:40:12;;;;;;;25.05;3.28;;;34.50;1.00;;;;;;4802236;28;20279;-77
2021/06/01 09:42:36;;;;;;;14.77;1.95;;;34.20;99.90;;;;;;4782182;29;20185;-77
2021/06/01 09:45:04;;;;;;;13.07;1.75;;;34.40;99.90;;;;;;4783351;29;20219;-76
2021/06/01 09:47:45;;;;;;;13.43;1.80;;;34.20;99.90;;;;;;4783589;29;20184;-82
2021/06/01 09:50:16;;;;;;;19.95;2.65;;;35.20;1.00;;;;;;4783261;29;20228;-78
2021/06/01 09:52:46;;;;;;;11.85;1.65;;;34.40;99.90;;;;;;4796074;28;20191;-78
2021/06/01 09:55:23;;;;;;;20.00;2.65;;;34.20;1.00;;;;;;4801215;28;20208;-78
2021/06/01 09:57:46;;;;;;;9.30;1.33;;;34.10;1.00;;;;;;4802178;28;20176;-78
2021/06/01 10:00:13;;;;;;;22.05;2.88;;;34.00;1.00;;;;;;4801468;28;20191;-76
2021/06/01 10:02:40;;;;;;;22.80;3.08;;;33.60;99.90;;;;;;4781352;28;20260;-78
2021/06/01 10:05:09;;;;;;;11.57;1.55;;;32.90;99.90;;;;;;4801326;28;20263;-78
2021/06/01 10:07:31;;;;;;;13.60;1.77;;;31.50;1.00;;;;;;4784130;28;20197;-75
2021/06/01 10:10:16;;;;;;;12.02;1.60;;;31.40;1.00;;;;;;4799552;28;20227;-79
2021/06/01 10:13:19;;;;;;;13.02;1.73;;;30.60;99.90;;;;;;4799817;28;20230;-80
2021/06/01 10:15:46;;;;;;;11.15;1.52;;;;;;;;;;4783667;28;20610;-78
2021/06/01 10:18:10;;;;;;;17.35;2.33;;;32.70;99.90;;;;;;4801706;28;21000;-84
2021/06/01 10:20:45;;;;;;;13.73;1.88;;;34.70;1.00;;;;;;4801844;28;20188;-84
2021/06/01 10:23:28;;;;;;;30.38;3.67;;;36.40;99.90;;;;;;4797905;28;20214;-80
2021/06/01 10:25:58;;;;;;;38.78;24.80;;;38.10;99.90;;;;;;4799829;28;20542;-81
2021/06/01 10:28:42;;;;;;;148.35;137.75;;;39.50;99.90;;;;;;4801246;28;20188;-83
2021/06/01 10:31:18;;;;;;;438.67;403.95;;;39.00;99.90;;;;;;4799560;28;20203;-82
2021/06/01 10:33:47;;;;;;;312.00;293.58;;;37.20;99.90;;;;;;4783370;28;20869;-81
2021/06/01 10:36:31;;;;;;;276.88;259.40;;;35.50;99.90;;;;;;4800329;28;20247;-80
2021/06/01 10:44:47;;;;;;;148.23;139.30;;;36.10;99.90;;;;;;4800218;28;20316;-80
2021/06/01 10:50:08;;;;;;;121.47;113.63;;;37.70;99.90;;;;;;4805667;28;20196;-83
2021/06/01 10:52:30;;;;;;;106.70;100.43;;;;;;;;;;4800946;28;20168;-82
2021/06/01 10:55:05;;;;;;;223.85;210.68;;;39.60;99.90;;;;;;4799616;28;20227;-78
2021/06/01 10:57:55;;;;;;;117.25;109.85;;;39.00;99.90;;;;;;4782595;28;20188;-77
2021/06/01 11:03:06;;;;;;;85.18;79.18;;;35.50;99.90;;;;;;4800187;28;20235;-78
2021/06/01 11:05:28;;;;;;;74.00;69.50;;;34.00;99.90;;;;;;4801097;28;20427;-78
2021/06/01 11:07:56;;;;;;;43.03;37.97;;;33.00;52.80;;;;;;4799880;28;20195;-77
2021/06/01 11:10:37;;;;;;;39.47;29.30;;;31.00;99.90;;;;;;4783553;28;20180;-78
2021/06/01 11:12:59;;;;;;;20.58;13.50;;;;;;;;;;4800160;28;20595;-77
2021/06/01 11:15:35;;;;;;;13.75;4.35;;;28.40;99.90;;;;;;4800566;28;20223;-76
2021/06/01 11:18:15;;;;;;;16.52;4.80;;;27.70;99.90;;;;;;4800748;28;20180;-79
2021/06/01 11:20:40;;;;;;;17.23;2.95;;;;;;;;;;4782861;28;20221;-76
2021/06/01 11:23:17;;;;;;;12.18;1.73;;;26.50;99.90;;;;;;4799713;28;20239;-77
2021/06/01 11:33:56;;;;;;;14.20;1.87;;;;;;;;;;4777072;28;20797;-76
2021/06/01 11:36:20;;;;;;;24.02;3.17;;;30.50;99.90;;;;;;4782546;28;20240;-77
2021/06/01 11:38:47;;;;;;;11.30;5.50;;;32.80;99.90;;;;;;4800443;28;20215;-78
2021/06/01 11:43:44;;;;;;;14.48;6.68;;;;;;;;;;4799912;28;20176;-76
2021/06/01 11:46:23;;;;;;;29.00;8.23;;;36.50;7.80;;;;;;4800252;28;20560;-77
2021/06/01 11:51:29;;;;;;;24.20;15.20;;;36.80;99.90;;;;;;4799291;28;20238;-78
2021/06/01 11:53:56;;;;;;;21.30;18.45;;;38.20;99.90;;;;;;4766566;28;20231;-81
2021/06/01 11:56:50;;;;;;;35.55;22.17;;;39.40;99.90;;;;;;4781767;28;20294;-80
2021/06/01 12:18:30;;;;;;;11.48;2.22;;;;;;;;;;4799967;28;20183;-78
2021/06/01 12:20:55;;;;;;;12.57;2.03;;;36.50;99.90;;;;;;4799341;28;20180;-77
2021/06/01 12:23:28;;;;;;;35.20;4.60;;;34.60;99.90;;;;;;4798465;28;20242;-79
2021/06/01 12:26:09;;;;;;;15.60;2.10;;;33.10;1.00;;;;;;4782303;28;20224;-78
2021/06/01 12:31:11;;;;;;;26.23;3.55;;;33.20;1.00;;;;;;4767269;28;20653;-78
2021/06/01 12:33:34;;;;;;;21.40;2.78;;;;;;;;;;4798670;28;20638;-77
2021/06/01 12:41:46;;;;;;;9.38;1.30;;;32.20;99.90;;;;;;4782105;28;20200;-77
2021/06/01 12:44:09;;;;;;;19.23;2.47;;;;;;;;;;4799254;28;20250;-79
2021/06/01 12:46:39;;;;;;;11.60;1.52;;;29.50;1.00;;;;;;4802976;28;20183;-84
2021/06/01 13:09:09;;;;;;;6.60;0.97;;;25.50;99.90;;;;;;4808970;28;20236;-79
2021/06/01 13:14:24;;;;;;;19.20;2.53;;;25.00;99.90;;;;;;4821566;28;20602;-83
2021/06/01 13:19:29;;;;;;;20.00;2.70;;;24.60;99.90;;;;;;4821110;28;20187;-80
2021/06/01 13:36:30;;;;;;;15.27;1.93;;;24.20;99.90;;;;;;4857175;28;20799;-81
2021/06/01 13:38:55;;;;;;;21.23;2.80;;;;;;;;;;4853012;28;20189;-81
2021/06/01 13:46:42;;;;;;;10.30;1.40;;;;;;;;;;4872516;28;20189;-79
2021/06/01 13:49:11;;;;;;;12.33;1.67;;;24.80;99.90;;;;;;4872418;28;20235;-80
2021/06/01 13:51:52;;;;;;;24.00;2.97;;;24.80;99.90;;;;;;4871257;28;20186;-79
2021/06/01 13:57:08;;;;;;;17.27;2.20;;;;;;;;;;4871016;28;20194;-81
2021/06/01 13:59:40;;;;;;;24.70;3.07;;;;;;;;;;4871978;28;20177;-80
2021/06/01 14:02:25;;;;;;;34.20;4.20;;;;;;;;;;4851838;28;20276;-80
2021/06/01 14:10:22;;;;;;;17.00;2.23;;;23.20;1.00;;;;;;4887107;28;20200;-82
2021/06/01 14:19:20;;;;;;;12.93;1.63;;;;;;;;;;4872784;28;20220;-88
2021/06/01 14:21:13;;;;;;;19.23;2.47;;;;;;;;;;4871830;28;20249;-81
2021/06/01 14:32:07;;;;;;;10.23;1.33;;;24.80;99.90;;;;;;4872234;28;20204;-87
2021/06/01 14:37:31;;;;;;;10.17;1.30;;;;;;;;;;4858825;28;20253;-83
2021/06/01 14:40:28;;;;;;;14.23;1.90;;;25.20;99.90;;;;;;4859405;28;20182;-84
2021/06/01 15:07:43;;;;;;;9.87;1.40;;;22.00;1.00;;;;;;4783036;28;20272;-84
2021/06/01 15:10:20;;;;;;;5.73;0.83;;;21.80;1.00;;;;;;4840820;28;20190;-84
2021/06/01 15:29:19;;;;;;;9.43;1.37;;;21.80;99.90;;;;;;4824516;28;20196;-81
2021/06/01 15:31:52;;;;;;;18.90;2.63;;;22.10;99.90;;;;;;4832188;28;20189;-77
2021/06/01 15:48:04;;;;;;;9.37;1.37;;;;;;;;;;4780365;28;20207;-77
2021/06/01 15:50:32;;;;;;;12.60;1.80;;;;;;;;;;4778158;29;20195;-83
2021/06/01 15:53:30;;;;;;;10.00;1.47;;;22.10;99.90;;;;;;4779099;28;20237;-78
2021/06/01 16:15:37;;;;;;;12.10;1.67;;;;;;;;;;4786547;28;20231;-71
2021/06/01 16:23:26;;;;;;;12.30;1.80;;;19.60;99.90;;;;;;4804600;28;20214;-72
2021/06/01 16:31:26;;;;;;;13.67;2.03;;;19.20;99.90;;;;;;4836385;28;20191;-75
2021/06/01 16:42:09;;;;;;;26.03;3.80;;;18.90;99.90;;;;;;4817607;28;20184;-72
2021/06/01 17:03:08;;;;;;;11.40;1.77;;;18.80;99.90;;;;;;4815747;28;20732;-73
2021/06/01 17:03:45;;;;;;;15.73;2.40;;;18.90;99.90;;;;;;4816489;28;20225;-75
2021/06/01 17:06:15;;;;;;;14.10;2.13;;;18.90;99.90;;;;;;4817034;28;20190;-75
2021/06/01 17:08:58;;;;;;;15.70;2.27;;;18.90;99.90;;;;;;4817924;28;20596;-73
2021/06/01 17:11:20;;;;;;;11.20;1.73;;;;;;;;;;4817639;28;20499;-74
2021/06/01 17:13:48;;;;;;;14.43;2.13;;;18.90;99.90;;;;;;4816739;28;20205;-73
2021/06/01 17:16:16;;;;;;;17.90;2.60;;;;;;;;;;4816943;28;20213;-74
2021/06/01 17:19:12;;;;;;;18.50;2.67;;;18.80;99.90;;;;;;4820410;28;20260;-73
2021/06/01 17:30:24;;;;;;;11.23;1.73;;;18.70;99.90;;;;;;4836444;28;20265;-74